Time;durP1;ratioP1;P1;durP2;ratioP2;P2;SDS_P1;SDS_P2;PMS_P1;PMS_P2;Temp;Humidity;BMP_temperature;BMP_pressure;BME280_temperature;BME280_humidity;BME280_pressure;Samples;Min_cycle;Max_cycle;Signal;HPM_P1;HPM_P2
2022/11/01 00:02:14;;;;;;;3.60;1.43;;;10.50;99.90;;;;;;5052775;28;20492;-47
2022/11/01 00:04:41;;;;;;;4.70;2.70;;;10.30;99.90;;;;;;5052584;28;20557;-46
2022/11/01 00:07:08;;;;;;;6.13;1.80;;;10.30;99.90;;;;;;5053050;28;20536;-48
2022/11/01 00:09:34;;;;;;;2.70;1.40;;;10.30;99.90;;;;;;5053054;28;20877;-47
2022/11/01 00:12:01;;;;;;;2.47;2.03;;;10.70;99.90;;;;;;5052673;28;20529;-47
2022/11/01 00:14:29;;;;;;;2.53;2.33;;;10.70;99.90;;;;;;5052562;28;20462;-47
2022/11/01 00:16:56;;;;;;;2.70;1.93;;;10.50;99.90;;;;;;5052776;28;20899;-48
2022/11/01 00:19:23;;;;;;;2.50;1.70;;;10.40;99.90;;;;;;5052969;28;20438;-47
2022/11/01 00:21:50;;;;;;;4.47;3.43;;;10.60;99.90;;;;;;5052691;28;20886;-50
2022/11/01 00:24:17;;;;;;;6.70;4.13;;;10.60;99.90;;;;;;5052340;28;20912;-47
2022/11/01 00:26:44;;;;;;;5.00;2.60;;;10.10;99.90;;;;;;5052409;28;20522;-47
2022/11/01 00:29:12;;;;;;;4.10;2.33;;;9.80;99.90;;;;;;5052463;28;20438;-49
2022/11/01 00:31:40;;;;;;;2.17;1.97;;;10.00;99.90;;;;;;5052444;28;20525;-48
2022/11/01 00:34:07;;;;;;;2.97;1.70;;;10.20;99.90;;;;;;5051708;28;20469;-48
2022/11/01 00:36:34;;;;;;;2.27;1.60;;;10.50;99.90;;;;;;5052611;28;20439;-47
2022/11/01 00:39:01;;;;;;;2.50;1.70;;;10.60;99.90;;;;;;5052236;28;20445;-47
2022/11/01 00:41:28;;;;;;;2.30;1.97;;;10.80;99.90;;;;;;5052033;28;20583;-48
2022/11/01 00:43:54;;;;;;;4.43;2.30;;;10.90;99.90;;;;;;5052251;28;20436;-47
2022/11/01 00:46:21;;;;;;;3.47;2.93;;;10.80;99.90;;;;;;5052010;28;20897;-47
2022/11/01 00:48:49;;;;;;;9.20;3.50;;;10.50;99.90;;;;;;5052422;28;20442;-48
2022/11/01 00:51:16;;;;;;;2.43;1.30;;;9.50;99.90;;;;;;5052143;28;20866;-47
2022/11/01 00:53:43;;;;;;;3.20;2.90;;;9.80;99.90;;;;;;5051456;28;20531;-46
2022/11/01 00:56:10;;;;;;;4.03;2.63;;;10.30;99.90;;;;;;5051634;28;20549;-48
2022/11/01 00:58:37;;;;;;;3.73;1.70;;;10.10;99.90;;;;;;5052041;28;20448;-47
2022/11/01 01:01:04;;;;;;;2.67;2.13;;;10.30;99.90;;;;;;5050636;28;20528;-47
2022/11/01 01:03:31;;;;;;;2.60;1.63;;;10.40;99.90;;;;;;5051739;28;20452;-49
2022/11/01 01:05:59;;;;;;;8.77;3.17;;;10.60;99.90;;;;;;5051787;28;20563;-47
2022/11/01 01:08:27;;;;;;;5.43;2.50;;;10.10;99.90;;;;;;5051690;28;20951;-48
2022/11/01 01:10:54;;;;;;;4.10;1.97;;;9.80;99.90;;;;;;5051660;28;20446;-47
2022/11/01 01:13:22;;;;;;;3.00;1.20;;;10.10;99.90;;;;;;5051296;28;20433;-49
2022/11/01 01:15:48;;;;;;;2.23;1.10;;;10.40;99.90;;;;;;5051778;28;21005;-47
2022/11/01 01:18:16;;;;;;;4.10;1.10;;;10.70;99.90;;;;;;5051644;28;20480;-47
2022/11/01 01:20:43;;;;;;;4.57;2.00;;;10.90;99.90;;;;;;5051322;28;20503;-47
2022/11/01 01:23:11;;;;;;;5.67;1.97;;;10.70;99.90;;;;;;5050901;28;20477;-47
2022/11/01 01:25:39;;;;;;;4.00;1.60;;;10.60;99.90;;;;;;5051810;28;20868;-47
2022/11/01 01:28:06;;;;;;;2.30;1.40;;;10.70;99.90;;;;;;5051193;28;20477;-47
2022/11/01 01:30:33;;;;;;;2.10;1.27;;;10.80;99.90;;;;;;5051434;28;20525;-49
2022/11/01 01:32:59;;;;;;;4.90;1.30;;;10.80;99.90;;;;;;5051259;28;20448;-47
2022/11/01 01:35:26;;;;;;;2.00;1.20;;;10.80;99.90;;;;;;5051248;28;20458;-47
2022/11/01 01:37:53;;;;;;;2.00;1.03;;;10.90;99.90;;;;;;5051347;28;20445;-49
2022/11/01 01:40:21;;;;;;;2.20;1.23;;;11.10;99.90;;;;;;5051729;28;20526;-47
2022/11/01 01:42:48;;;;;;;1.93;1.00;;;11.20;99.90;;;;;;5051417;28;20974;-47
2022/11/01 01:45:35;;;;;;;3.10;2.07;;;11.30;99.90;;;;;;5051241;28;20881;-48
2022/11/01 01:48:15;;;;;;;1.80;1.00;;;10.70;99.90;;;;;;5050900;28;20532;-48
2022/11/01 01:50:48;;;;;;;1.70;0.93;;;10.50;99.90;;;;;;5050896;28;20977;-48
2022/11/01 01:53:20;;;;;;;1.37;1.10;;;10.60;99.90;;;;;;5050740;28;20462;-47
2022/11/01 01:55:53;;;;;;;2.77;1.00;;;10.80;99.90;;;;;;5051818;28;20911;-47
2022/11/01 01:58:24;;;;;;;3.00;1.50;;;11.20;99.90;;;;;;5050645;28;20441;-48
2022/11/01 02:00:52;;;;;;;1.40;0.87;;;11.20;99.90;;;;;;5051202;28;20445;-48
2022/11/01 02:03:20;;;;;;;5.37;2.90;;;11.20;99.90;;;;;;5050664;28;20518;-47
2022/11/01 02:05:53;;;;;;;5.33;3.30;;;11.20;99.90;;;;;;5050877;28;20541;-47
2022/11/01 02:08:26;;;;;;;3.50;2.80;;;10.30;99.90;;;;;;5051198;28;20524;-47
2022/11/01 02:10:56;;;;;;;1.87;1.50;;;10.00;99.90;;;;;;5050750;28;20450;-49
2022/11/01 02:13:23;;;;;;;3.40;1.50;;;10.40;99.90;;;;;;5054555;28;20442;-49
2022/11/01 02:16:18;;;;;;;1.43;1.13;;;10.70;99.90;;;;;;5055173;28;20497;-47
2022/11/01 02:18:48;;;;;;;2.70;1.47;;;10.70;99.90;;;;;;5049666;28;20542;-47
2022/11/01 02:21:42;;;;;;;2.30;1.17;;;10.60;99.90;;;;;;5054670;28;20442;-47
2022/11/01 02:24:39;;;;;;;3.37;1.60;;;10.30;99.90;;;;;;5054639;28;20540;-47
2022/11/01 02:27:14;;;;;;;4.83;1.20;;;10.60;99.90;;;;;;5021757;28;20837;-48
2022/11/01 02:30:07;;;;;;;4.80;3.07;;;11.10;99.90;;;;;;5054822;28;21012;-47
2022/11/01 02:32:55;;;;;;;3.57;3.30;;;11.00;99.90;;;;;;5048278;28;20478;-50
2022/11/01 02:35:27;;;;;;;3.23;1.80;;;10.40;99.90;;;;;;5053949;28;20552;-51
2022/11/01 02:38:01;;;;;;;2.20;0.90;;;10.80;99.90;;;;;;5054870;28;20856;-47
2022/11/01 02:40:35;;;;;;;2.67;1.30;;;11.20;99.90;;;;;;5054560;28;20533;-47
2022/11/01 02:43:06;;;;;;;1.67;1.00;;;11.00;99.90;;;;;;5054245;28;20577;-47
2022/11/01 02:45:36;;;;;;;1.40;0.80;;;11.00;99.90;;;;;;5054476;28;20928;-50
2022/11/01 02:48:06;;;;;;;2.10;0.90;;;11.30;99.90;;;;;;5054217;28;21101;-48
2022/11/01 02:50:38;;;;;;;2.40;0.97;;;11.70;99.90;;;;;;5054254;28;20529;-47
2022/11/01 02:53:05;;;;;;;2.03;1.83;;;11.60;99.90;;;;;;5054100;28;20442;-47
2022/11/01 02:55:34;;;;;;;3.20;1.50;;;11.20;99.90;;;;;;5054050;28;20485;-47
2022/11/01 02:58:04;;;;;;;3.20;1.63;;;10.80;99.90;;;;;;5054321;28;20445;-47
2022/11/01 03:00:33;;;;;;;3.27;1.23;;;10.20;99.90;;;;;;5053996;28;20894;-49
2022/11/01 03:03:09;;;;;;;2.17;1.20;;;10.40;99.90;;;;;;5054486;28;20575;-48
2022/11/01 03:05:44;;;;;;;1.40;0.80;;;11.10;99.90;;;;;;5054430;28;20551;-47
2022/11/01 03:08:15;;;;;;;2.13;1.50;;;11.30;99.90;;;;;;5053826;28;20437;-47
2022/11/01 03:10:51;;;;;;;4.50;2.20;;;11.40;99.90;;;;;;5054050;28;20536;-47
2022/11/01 03:13:31;;;;;;;2.20;1.40;;;9.90;99.90;;;;;;5053883;28;20804;-47
2022/11/01 03:16:04;;;;;;;2.90;1.43;;;10.40;99.90;;;;;;5053850;28;21104;-47
2022/11/01 03:18:39;;;;;;;1.40;1.00;;;10.80;99.90;;;;;;5054017;28;20517;-47
2022/11/01 03:21:15;;;;;;;1.70;1.00;;;10.90;99.90;;;;;;5054134;28;20445;-47
2022/11/01 03:23:47;;;;;;;2.53;1.37;;;10.90;99.90;;;;;;5052748;28;20509;-47
2022/11/01 03:26:20;;;;;;;3.00;1.10;;;10.60;99.90;;;;;;5053659;28;20480;-47
2022/11/01 03:28:50;;;;;;;2.03;1.60;;;10.60;99.90;;;;;;5054068;28;20469;-48
2022/11/01 03:31:20;;;;;;;3.03;1.50;;;10.60;99.90;;;;;;5053462;28;20535;-46
2022/11/01 03:33:53;;;;;;;2.13;1.27;;;10.30;99.90;;;;;;5052749;28;20961;-47
2022/11/01 03:36:23;;;;;;;2.07;0.97;;;10.30;99.90;;;;;;5053743;28;20442;-48
2022/11/01 03:38:55;;;;;;;2.07;1.27;;;10.60;99.90;;;;;;5053399;28;20536;-46
2022/11/01 03:41:24;;;;;;;4.63;2.40;;;10.80;99.90;;;;;;5053439;28;20452;-47
2022/11/01 03:43:52;;;;;;;1.83;1.50;;;10.60;99.90;;;;;;5052949;28;20568;-47
2022/11/01 03:46:20;;;;;;;3.73;1.53;;;10.00;99.90;;;;;;5053325;28;20448;-47
2022/11/01 03:48:48;;;;;;;2.00;1.27;;;10.10;99.90;;;;;;5053283;28;20566;-50
2022/11/01 03:51:15;;;;;;;2.33;1.20;;;10.30;99.90;;;;;;5053459;28;20444;-49
2022/11/01 03:53:42;;;;;;;1.90;1.17;;;10.60;99.90;;;;;;5052968;28;20504;-46
2022/11/01 03:56:09;;;;;;;4.20;1.50;;;10.50;99.90;;;;;;5053440;28;20468;-49
2022/11/01 03:58:42;;;;;;;5.50;1.00;;;10.50;99.90;;;;;;5053076;28;20452;-48
2022/11/01 04:01:10;;;;;;;2.90;1.23;;;10.40;99.90;;;;;;5052956;28;20895;-47
2022/11/01 04:03:37;;;;;;;2.50;2.30;;;9.90;99.90;;;;;;5052756;28;20481;-47
2022/11/01 04:06:06;;;;;;;4.70;2.57;;;9.30;99.90;;;;;;5052792;28;20537;-47
2022/11/01 04:08:33;;;;;;;5.07;3.40;;;8.60;99.90;;;;;;5052632;28;20883;-47
2022/11/01 04:11:00;;;;;;;3.93;3.50;;;9.10;99.90;;;;;;5053066;28;20477;-49
2022/11/01 04:13:28;;;;;;;4.60;3.33;;;9.20;99.90;;;;;;5052666;28;20442;-46
2022/11/01 04:21:26;;;;;;;2.63;1.73;;;10.20;99.90;;;;;;5052663;28;20963;-48
2022/11/01 04:23:53;;;;;;;4.47;2.40;;;10.80;99.90;;;;;;5052790;28;20569;-47
2022/11/01 04:26:22;;;;;;;4.70;3.33;;;11.00;99.90;;;;;;5052938;28;20533;-47
2022/11/01 04:28:56;;;;;;;5.00;3.07;;;10.60;99.90;;;;;;5052626;28;20444;-47
2022/11/01 04:31:25;;;;;;;6.53;3.30;;;10.10;99.90;;;;;;5052439;28;20455;-46
2022/11/01 04:33:52;;;;;;;5.03;2.30;;;10.10;99.90;;;;;;5051497;28;20964;-47
2022/11/01 04:36:19;;;;;;;2.27;1.40;;;10.00;99.90;;;;;;5052185;28;20442;-48
2022/11/01 04:38:50;;;;;;;2.00;1.20;;;10.10;99.90;;;;;;5052607;28;20650;-46
2022/11/01 04:41:18;;;;;;;1.40;1.10;;;10.40;99.90;;;;;;5052260;28;20935;-46
2022/11/01 04:43:45;;;;;;;2.77;1.80;;;10.50;99.90;;;;;;5051940;28;20473;-47
2022/11/01 04:46:12;;;;;;;5.93;2.47;;;10.30;99.90;;;;;;5052399;28;20525;-46
2022/11/01 04:48:39;;;;;;;4.40;1.97;;;9.90;99.90;;;;;;5052369;28;20445;-49
2022/11/01 04:51:06;;;;;;;3.50;1.60;;;9.00;99.90;;;;;;5052072;28;21013;-46
2022/11/01 04:53:33;;;;;;;2.07;1.53;;;9.30;99.90;;;;;;5051702;28;20445;-48
2022/11/01 04:56:02;;;;;;;4.17;1.57;;;9.90;99.90;;;;;;5051715;28;20564;-47
2022/11/01 04:58:28;;;;;;;2.63;2.10;;;9.90;99.90;;;;;;5051691;28;20448;-46
2022/11/01 05:00:55;;;;;;;2.67;2.20;;;9.80;99.90;;;;;;5051835;28;20524;-46
2022/11/01 05:03:22;;;;;;;3.53;1.77;;;9.90;99.90;;;;;;5051732;28;20564;-47
2022/11/01 05:05:49;;;;;;;2.43;1.60;;;10.10;99.90;;;;;;5051757;28;20462;-47
2022/11/01 05:08:16;;;;;;;4.27;2.00;;;10.20;99.90;;;;;;5051860;28;20533;-48
2022/11/01 05:10:44;;;;;;;3.53;1.50;;;10.30;99.90;;;;;;5051674;28;20437;-48
2022/11/01 05:13:13;;;;;;;2.10;1.57;;;10.10;99.90;;;;;;5051603;28;20441;-47
2022/11/01 05:15:40;;;;;;;2.37;1.70;;;10.20;99.90;;;;;;5051614;28;20548;-47
2022/11/01 05:18:07;;;;;;;4.40;1.00;;;10.40;99.90;;;;;;5051686;28;20442;-47
2022/11/01 05:20:34;;;;;;;4.57;2.40;;;10.50;99.90;;;;;;5051726;28;20528;-47
2022/11/01 05:23:02;;;;;;;4.83;2.97;;;10.30;99.90;;;;;;5051133;28;20500;-47
2022/11/01 05:25:30;;;;;;;3.80;2.93;;;10.20;99.90;;;;;;5051205;28;20469;-48
2022/11/01 05:28:01;;;;;;;3.30;1.97;;;9.90;99.90;;;;;;5051729;28;20520;-47
2022/11/01 05:30:29;;;;;;;2.63;1.13;;;9.70;99.90;;;;;;5051408;28;20445;-47
2022/11/01 05:32:57;;;;;;;1.63;1.00;;;9.90;99.90;;;;;;5051268;28;20449;-48
2022/11/01 05:35:24;;;;;;;2.50;1.97;;;10.20;99.90;;;;;;5050784;28;21033;-47
2022/11/01 05:37:51;;;;;;;3.40;1.80;;;9.20;99.90;;;;;;5051354;28;20926;-47
2022/11/01 05:40:18;;;;;;;3.53;2.67;;;9.00;99.90;;;;;;5051162;28;20532;-48
2022/11/01 05:42:45;;;;;;;4.30;3.70;;;8.80;99.90;;;;;;5051249;28;20552;-46
2022/11/01 05:45:12;;;;;;;4.40;3.83;;;9.00;99.90;;;;;;5050912;28;20556;-47
2022/11/01 05:47:40;;;;;;;4.57;4.17;;;8.50;99.90;;;;;;5050876;28;20442;-47
2022/11/01 05:50:08;;;;;;;4.60;3.50;;;8.10;99.90;;;;;;5051016;28;20467;-47
2022/11/01 05:52:35;;;;;;;6.07;3.00;;;8.10;99.90;;;;;;5051162;28;20449;-47
2022/11/01 05:55:02;;;;;;;3.37;2.43;;;8.60;99.90;;;;;;5050881;28;20659;-47
2022/11/01 05:57:29;;;;;;;4.10;3.13;;;9.00;99.90;;;;;;5051152;28;20445;-47
2022/11/01 05:59:55;;;;;;;5.30;3.80;;;9.50;99.90;;;;;;5051079;28;20438;-46
2022/11/01 06:02:22;;;;;;;4.30;3.47;;;9.40;99.90;;;;;;5050340;28;20448;-47
2022/11/01 06:04:51;;;;;;;5.07;4.20;;;9.10;99.90;;;;;;5050907;28;20557;-48
2022/11/01 06:07:18;;;;;;;6.23;3.23;;;9.00;99.90;;;;;;5050902;28;20448;-48
2022/11/01 06:09:44;;;;;;;3.20;2.63;;;9.20;99.90;;;;;;5051102;28;20437;-47
2022/11/01 06:12:11;;;;;;;3.73;3.10;;;9.40;99.90;;;;;;5051126;28;20449;-48
2022/11/01 06:14:38;;;;;;;4.87;3.50;;;9.20;99.90;;;;;;5050609;28;20484;-47
2022/11/01 06:17:05;;;;;;;3.57;3.00;;;9.50;99.90;;;;;;5051407;28;20544;-46
2022/11/01 06:19:32;;;;;;;4.50;2.97;;;9.60;99.90;;;;;;5050944;28;20926;-47
2022/11/01 06:22:00;;;;;;;5.13;4.40;;;9.80;99.90;;;;;;5051230;28;20442;-47
2022/11/01 06:24:27;;;;;;;4.60;4.17;;;9.90;99.90;;;;;;5050683;28;20477;-47
2022/11/01 06:26:54;;;;;;;6.10;4.57;;;9.80;99.90;;;;;;5050984;28;20544;-47
2022/11/01 06:29:20;;;;;;;5.80;4.33;;;9.80;99.90;;;;;;5050696;28;21015;-47
2022/11/01 06:31:47;;;;;;;8.17;6.07;;;9.90;99.90;;;;;;5050697;28;20449;-47
2022/11/01 06:34:14;;;;;;;3.83;3.53;;;9.60;99.90;;;;;;5050354;28;20544;-47
2022/11/01 06:36:42;;;;;;;5.83;4.60;;;9.70;99.90;;;;;;5051026;28;20444;-47
2022/11/01 06:39:10;;;;;;;5.30;4.00;;;9.60;99.90;;;;;;5050739;28;20441;-47
2022/11/01 06:41:37;;;;;;;3.40;2.60;;;9.70;99.90;;;;;;5050679;28;20461;-46
2022/11/01 06:44:04;;;;;;;4.20;2.67;;;9.90;99.90;;;;;;5050177;28;20477;-47
2022/11/01 06:46:31;;;;;;;6.03;3.70;;;10.00;99.90;;;;;;5050525;28;20947;-47
2022/11/01 06:48:58;;;;;;;4.67;4.17;;;10.10;99.90;;;;;;5050653;28;20817;-50
2022/11/01 06:51:25;;;;;;;8.53;5.80;;;10.20;99.90;;;;;;5050553;28;20628;-47
2022/11/01 06:53:52;;;;;;;6.03;5.43;;;10.10;99.90;;;;;;5050337;28;20460;-47
2022/11/01 06:56:20;;;;;;;9.07;6.27;;;9.40;99.90;;;;;;5050507;28;20535;-51
2022/11/01 06:58:48;;;;;;;6.63;5.17;;;9.50;99.90;;;;;;5051400;28;20453;-48
2022/11/01 07:01:17;;;;;;;6.50;4.50;;;9.60;99.90;;;;;;5053855;28;21014;-47
2022/11/01 07:03:44;;;;;;;5.33;4.50;;;9.80;99.90;;;;;;5053680;28;20508;-47
2022/11/01 07:06:11;;;;;;;8.93;5.90;;;10.00;99.90;;;;;;5054129;28;20971;-48
2022/11/01 07:08:38;;;;;;;6.23;4.90;;;9.20;99.90;;;;;;5053932;28;20534;-47
2022/11/01 07:11:05;;;;;;;6.10;4.00;;;9.20;99.90;;;;;;5053937;28;20549;-47
2022/11/01 07:13:35;;;;;;;5.23;3.27;;;9.70;99.90;;;;;;5054498;28;20854;-47
2022/11/01 07:16:03;;;;;;;3.47;2.53;;;10.10;99.90;;;;;;5054634;28;20472;-47
2022/11/01 07:18:30;;;;;;;4.37;2.73;;;10.40;99.90;;;;;;5054168;28;20523;-47
2022/11/01 07:21:00;;;;;;;15.03;6.30;;;10.60;99.90;;;;;;5053888;28;20477;-47
2022/11/01 07:23:28;;;;;;;9.73;7.67;;;10.60;99.90;;;;;;5053468;28;20950;-48
2022/11/01 07:25:55;;;;;;;13.43;8.23;;;10.60;99.90;;;;;;5053629;28;20469;-48
2022/11/01 07:28:22;;;;;;;13.50;8.30;;;10.30;99.90;;;;;;5053464;28;20965;-48
2022/11/01 07:30:51;;;;;;;9.23;6.63;;;9.90;99.90;;;;;;5053850;28;20554;-50
2022/11/01 07:33:18;;;;;;;7.30;6.43;;;9.90;99.90;;;;;;5053290;28;20516;-47
2022/11/01 07:35:46;;;;;;;8.30;5.20;;;10.20;99.90;;;;;;5053283;28;20540;-48
2022/11/01 07:38:13;;;;;;;8.03;5.07;;;10.50;99.90;;;;;;5053476;28;20528;-47
2022/11/01 07:40:40;;;;;;;9.80;6.60;;;10.60;99.90;;;;;;5053018;28;20882;-47
2022/11/01 07:43:07;;;;;;;9.80;8.73;;;10.80;99.90;;;;;;5053234;28;20523;-47
2022/11/01 07:45:35;;;;;;;10.40;9.37;;;10.90;99.90;;;;;;5053195;28;20544;-48
2022/11/01 07:48:05;;;;;;;9.20;7.83;;;10.90;99.90;;;;;;5052869;28;20452;-48
2022/11/01 07:50:33;;;;;;;12.53;7.80;;;10.30;99.90;;;;;;5053039;28;20529;-48
2022/11/01 07:53:01;;;;;;;7.87;6.90;;;10.10;99.90;;;;;;5052726;28;20528;-47
2022/11/01 07:55:28;;;;;;;8.33;5.53;;;9.90;99.90;;;;;;5054427;28;20478;-47
2022/11/01 07:57:55;;;;;;;5.20;4.20;;;10.10;99.90;;;;;;5052863;28;20442;-49
2022/11/01 08:00:22;;;;;;;8.13;6.23;;;10.40;99.90;;;;;;5052720;28;20449;-47
2022/11/01 08:02:49;;;;;;;8.87;6.70;;;10.70;99.90;;;;;;5053043;28;20442;-49
2022/11/01 08:05:17;;;;;;;9.23;7.40;;;10.80;99.90;;;;;;5052773;28;20568;-47
2022/11/01 08:07:44;;;;;;;9.23;7.23;;;10.60;99.90;;;;;;5053035;28;20452;-47
2022/11/01 08:10:12;;;;;;;11.33;5.90;;;10.30;99.90;;;;;;5052413;28;21119;-49
2022/11/01 08:12:39;;;;;;;10.37;5.87;;;10.20;99.90;;;;;;5052701;28;20532;-48
2022/11/01 08:15:06;;;;;;;5.63;5.03;;;10.10;99.90;;;;;;5052620;28;20457;-49
2022/11/01 08:17:34;;;;;;;11.33;7.33;;;10.00;99.90;;;;;;5052592;28;20528;-48
2022/11/01 08:20:01;;;;;;;6.90;5.40;;;10.20;99.90;;;;;;5052864;28;20821;-48
2022/11/01 08:22:29;;;;;;;8.70;6.03;;;10.20;99.90;;;;;;5052563;28;20545;-48
2022/11/01 08:24:56;;;;;;;11.33;8.27;;;10.40;99.90;;;;;;5052432;28;20774;-48
2022/11/01 08:27:23;;;;;;;9.27;6.50;;;10.40;99.90;;;;;;5052332;28;20445;-48
2022/11/01 08:29:49;;;;;;;9.70;6.90;;;10.30;99.90;;;;;;5052563;28;20537;-48
2022/11/01 08:32:20;;;;;;;9.00;6.00;;;10.30;99.90;;;;;;5052424;28;20448;-47
2022/11/01 08:34:47;;;;;;;7.73;5.63;;;10.40;99.90;;;;;;5052002;28;20457;-48
2022/11/01 08:37:14;;;;;;;8.23;6.20;;;10.50;99.90;;;;;;5052431;28;20532;-48
2022/11/01 08:39:42;;;;;;;11.53;6.53;;;10.70;99.90;;;;;;5052173;28;20947;-50
2022/11/01 08:42:09;;;;;;;14.10;8.77;;;10.70;99.90;;;;;;5051862;28;20453;-50
2022/11/01 08:44:36;;;;;;;15.90;12.60;;;11.00;99.90;;;;;;5051971;28;20481;-48
2022/11/01 08:47:03;;;;;;;16.13;10.83;;;11.10;99.90;;;;;;5052303;28;20967;-50
2022/11/01 08:49:30;;;;;;;12.60;10.23;;;11.20;99.90;;;;;;5052442;28;20468;-48
2022/11/01 08:51:57;;;;;;;9.30;8.27;;;11.20;99.90;;;;;;5051892;28;20851;-48
2022/11/01 08:54:24;;;;;;;12.30;8.93;;;11.30;99.90;;;;;;5051504;28;20557;-48
2022/11/01 08:56:52;;;;;;;9.50;8.43;;;11.20;99.90;;;;;;5051809;28;20451;-48
2022/11/01 08:59:19;;;;;;;12.93;8.53;;;11.20;99.90;;;;;;5052687;28;20528;-47
2022/11/01 09:01:46;;;;;;;9.47;7.70;;;11.30;99.90;;;;;;5052104;28;20912;-47
2022/11/01 09:04:14;;;;;;;10.57;8.10;;;11.30;99.90;;;;;;5052746;28;20923;-48
2022/11/01 09:06:41;;;;;;;7.63;6.80;;;11.20;99.90;;;;;;5053152;28;20997;-48
2022/11/01 09:09:09;;;;;;;7.50;6.70;;;11.20;99.90;;;;;;5053544;28;20781;-48
2022/11/01 09:11:36;;;;;;;13.07;10.27;;;11.30;99.90;;;;;;5053151;28;20454;-49
2022/11/01 09:14:04;;;;;;;14.33;10.50;;;11.50;99.90;;;;;;5053335;28;20494;-49
2022/11/01 09:16:32;;;;;;;14.83;11.43;;;11.30;99.90;;;;;;5052390;28;20447;-50
2022/11/01 09:19:00;;;;;;;12.87;8.80;;;11.30;99.90;;;;;;5052238;28;20441;-49
2022/11/01 09:21:27;;;;;;;11.13;8.60;;;11.20;99.90;;;;;;5051828;28;20446;-47
2022/11/01 09:23:55;;;;;;;11.10;7.90;;;11.20;99.90;;;;;;5052810;28;20841;-46
2022/11/01 09:26:22;;;;;;;11.40;9.23;;;11.40;99.90;;;;;;5052300;28;20438;-49
2022/11/01 09:28:49;;;;;;;14.90;10.90;;;11.60;99.90;;;;;;5051732;28;20449;-47
2022/11/01 09:31:17;;;;;;;23.80;17.10;;;11.70;99.90;;;;;;5051330;28;20480;-47
2022/11/01 09:33:44;;;;;;;14.33;12.03;;;11.80;99.90;;;;;;5050825;28;20448;-47
2022/11/01 09:36:11;;;;;;;11.23;10.10;;;11.90;99.90;;;;;;5051549;28;20541;-49
2022/11/01 09:38:38;;;;;;;11.03;9.80;;;11.80;99.90;;;;;;5051355;28;20445;-48
2022/11/01 09:41:11;;;;;;;9.50;7.90;;;11.90;99.90;;;;;;5051266;28;20538;-47
2022/11/01 09:43:43;;;;;;;7.63;6.10;;;12.00;99.90;;;;;;5050898;28;20484;-48
2022/11/01 09:46:16;;;;;;;8.27;6.80;;;11.90;99.90;;;;;;5051288;28;20871;-47
2022/11/01 09:48:45;;;;;;;7.43;6.63;;;11.90;99.90;;;;;;5051562;28;20524;-47
2022/11/01 09:51:18;;;;;;;7.50;6.30;;;11.90;99.90;;;;;;5051269;28;20439;-47
2022/11/01 09:53:46;;;;;;;7.50;6.77;;;11.90;99.90;;;;;;5050939;28;20520;-47
2022/11/01 09:56:18;;;;;;;11.30;7.83;;;12.00;99.90;;;;;;5051413;28;20530;-47
2022/11/01 09:58:55;;;;;;;10.20;8.80;;;12.20;99.90;;;;;;5051619;28;20518;-47
2022/11/01 10:01:40;;;;;;;8.00;7.00;;;12.30;99.90;;;;;;5051427;28;20814;-47
2022/11/01 10:04:43;;;;;;;8.37;7.20;;;12.30;99.90;;;;;;5050716;28;21027;-47
2022/11/01 10:07:19;;;;;;;10.10;7.77;;;12.40;99.90;;;;;;5051300;28;20454;-49
2022/11/01 10:09:52;;;;;;;11.93;9.30;;;12.30;99.90;;;;;;5051343;28;20947;-47
2022/11/01 10:12:31;;;;;;;9.07;7.60;;;12.30;99.90;;;;;;5051143;28;20536;-47
2022/11/01 10:15:11;;;;;;;8.03;6.07;;;12.40;99.90;;;;;;5050630;28;20461;-47
2022/11/01 10:17:51;;;;;;;7.53;6.70;;;12.40;99.90;;;;;;5051226;28;20490;-48
2022/11/01 10:20:21;;;;;;;8.37;6.87;;;12.40;99.90;;;;;;5051092;28;20451;-47
2022/11/01 10:22:50;;;;;;;9.67;7.90;;;12.40;99.90;;;;;;5050927;28;20955;-48
2022/11/01 10:25:21;;;;;;;9.10;6.33;;;12.40;99.90;;;;;;5050750;28;20484;-47
2022/11/01 10:27:59;;;;;;;9.90;6.40;;;12.30;99.90;;;;;;5050855;28;20487;-48
2022/11/01 10:30:29;;;;;;;6.47;5.70;;;12.30;99.90;;;;;;5050942;28;20522;-49
2022/11/01 10:33:01;;;;;;;7.87;5.80;;;12.40;99.90;;;;;;5051430;28;21019;-47
2022/11/01 10:35:32;;;;;;;7.63;5.50;;;12.40;99.90;;;;;;5054347;28;20521;-47
2022/11/01 10:38:05;;;;;;;6.87;5.77;;;12.50;99.90;;;;;;5054979;28;20535;-47
2022/11/01 10:40:38;;;;;;;7.70;6.20;;;12.50;99.90;;;;;;5054519;28;20897;-47
2022/11/01 10:43:13;;;;;;;7.27;5.97;;;12.50;99.90;;;;;;5054979;28;20933;-50
2022/11/01 10:45:41;;;;;;;8.13;6.13;;;12.60;99.90;;;;;;5054416;28;20569;-47
2022/11/01 10:48:16;;;;;;;6.07;5.43;;;12.60;99.90;;;;;;5054786;28;20526;-47
2022/11/01 10:50:45;;;;;;;5.53;5.00;;;12.70;99.90;;;;;;5054848;28;20447;-47
2022/11/01 10:53:13;;;;;;;6.50;5.90;;;12.80;99.90;;;;;;5054246;28;20539;-49
2022/11/01 10:55:45;;;;;;;7.60;5.43;;;12.90;99.90;;;;;;5054397;28;20908;-47
2022/11/01 10:58:19;;;;;;;7.37;5.53;;;12.80;99.90;;;;;;5054120;28;20537;-48
2022/11/01 11:00:46;;;;;;;6.57;5.90;;;12.70;99.90;;;;;;5054232;28;20949;-49
2022/11/01 11:03:19;;;;;;;6.30;5.70;;;12.70;99.90;;;;;;5054286;28;20857;-47
2022/11/01 11:05:48;;;;;;;7.10;4.73;;;12.90;99.90;;;;;;5054221;28;20479;-50
2022/11/01 11:08:18;;;;;;;7.53;5.60;;;13.00;99.90;;;;;;5054215;28;20538;-47
2022/11/01 11:10:45;;;;;;;8.60;6.20;;;13.10;99.90;;;;;;5054018;28;20491;-49
2022/11/01 11:13:16;;;;;;;7.83;5.27;;;13.20;99.90;;;;;;5054072;28;20473;-48
2022/11/01 11:15:47;;;;;;;5.60;5.00;;;13.30;99.90;;;;;;5053846;28;20556;-48
2022/11/01 11:18:22;;;;;;;5.37;4.87;;;13.30;99.90;;;;;;5054271;28;20455;-47
2022/11/01 11:20:58;;;;;;;6.97;5.67;;;13.30;99.90;;;;;;5054096;28;20446;-50
2022/11/01 11:23:28;;;;;;;7.37;5.83;;;13.30;99.90;;;;;;5053508;28;20438;-49
2022/11/01 11:26:01;;;;;;;7.00;5.37;;;13.40;99.90;;;;;;5053925;28;20487;-47
2022/11/01 11:28:30;;;;;;;6.77;6.13;;;13.30;99.90;;;;;;5053738;28;20536;-49
2022/11/01 11:30:58;;;;;;;6.37;5.10;;;13.40;99.90;;;;;;5053666;28;20528;-47
2022/11/01 11:33:25;;;;;;;7.17;4.80;;;13.30;99.90;;;;;;5053507;28;20534;-48
2022/11/01 11:35:59;;;;;;;6.40;5.20;;;13.50;99.90;;;;;;5053863;28;20545;-51
2022/11/01 11:38:43;;;;;;;6.07;5.50;;;13.50;99.90;;;;;;5053698;28;20437;-48
2022/11/01 11:41:11;;;;;;;4.97;3.93;;;13.60;99.90;;;;;;5053531;28;20467;-49
2022/11/01 11:43:40;;;;;;;6.63;4.10;;;13.70;99.90;;;;;;5053166;28;21033;-48
2022/11/01 11:46:17;;;;;;;5.23;3.50;;;13.70;99.90;;;;;;5052720;28;21064;-49
2022/11/01 11:48:48;;;;;;;4.30;3.53;;;13.90;99.90;;;;;;5053617;28;20974;-48
2022/11/01 11:51:17;;;;;;;6.40;4.13;;;13.80;99.90;;;;;;5053398;28;20444;-48
2022/11/01 11:53:44;;;;;;;5.57;4.03;;;13.60;99.90;;;;;;5052994;28;20438;-48
2022/11/01 11:56:12;;;;;;;10.00;4.70;;;13.60;99.90;;;;;;5052921;28;20549;-48
2022/11/01 11:58:42;;;;;;;6.90;5.50;;;13.60;99.90;;;;;;5053500;28;20441;-48
2022/11/01 12:01:11;;;;;;;4.77;4.20;;;13.60;99.90;;;;;;5053514;28;20451;-48
2022/11/01 12:03:46;;;;;;;6.73;5.90;;;13.70;99.90;;;;;;5052555;28;20441;-48
2022/11/01 12:06:20;;;;;;;6.27;5.70;;;13.60;99.90;;;;;;5053044;28;20572;-48
2022/11/01 12:08:49;;;;;;;7.20;5.70;;;13.60;99.90;;;;;;5052945;28;20448;-48
2022/11/01 12:11:16;;;;;;;9.50;5.83;;;13.70;99.90;;;;;;5053039;28;20565;-48
2022/11/01 12:13:44;;;;;;;10.63;6.67;;;13.70;99.90;;;;;;5052671;28;20517;-48
2022/11/01 12:16:23;;;;;;;7.63;6.93;;;13.60;99.90;;;;;;5053033;28;20475;-48
2022/11/01 12:18:52;;;;;;;8.73;6.20;;;13.50;99.90;;;;;;5053339;28;20460;-48
2022/11/01 12:21:25;;;;;;;9.83;6.23;;;13.60;99.90;;;;;;5052796;28;20501;-48
2022/11/01 12:23:55;;;;;;;7.97;6.40;;;13.80;99.90;;;;;;5052534;28;20876;-48
2022/11/01 12:26:24;;;;;;;7.93;5.63;;;13.80;99.90;;;;;;5052698;28;20488;-48
2022/11/01 12:28:58;;;;;;;9.73;6.13;;;13.80;99.90;;;;;;5052737;28;20533;-49
2022/11/01 12:31:26;;;;;;;8.23;6.33;;;13.80;99.90;;;;;;5052658;28;20448;-48
2022/11/01 12:33:58;;;;;;;9.27;5.80;;;13.80;99.90;;;;;;5051857;28;20531;-48
2022/11/01 12:36:30;;;;;;;8.20;6.80;;;13.90;99.90;;;;;;5052790;28;20445;-48
2022/11/01 12:39:03;;;;;;;6.13;5.37;;;14.00;99.90;;;;;;5052321;28;20471;-48
2022/11/01 12:41:36;;;;;;;7.70;5.87;;;13.90;99.90;;;;;;5052586;28;20437;-50
2022/11/01 12:44:24;;;;;;;7.27;6.13;;;13.90;99.90;;;;;;5052680;28;20547;-48
2022/11/01 12:46:56;;;;;;;9.03;7.67;;;14.00;99.90;;;;;;5052851;28;20437;-49
2022/11/01 12:49:30;;;;;;;12.90;8.60;;;14.00;99.90;;;;;;5052458;28;20544;-50
2022/11/01 12:52:06;;;;;;;9.17;8.20;;;14.00;99.90;;;;;;5052096;28;20440;-48
2022/11/01 12:54:38;;;;;;;12.97;7.47;;;14.00;99.90;;;;;;5051664;28;20571;-50
2022/11/01 12:57:14;;;;;;;7.37;5.53;;;14.00;99.90;;;;;;5051366;28;20441;-49
2022/11/01 12:59:42;;;;;;;6.40;5.57;;;13.90;99.90;;;;;;5052029;28;20544;-48
2022/11/01 13:02:22;;;;;;;7.43;5.97;;;13.80;99.90;;;;;;5052442;28;20604;-48
2022/11/01 13:04:56;;;;;;;5.60;5.00;;;14.00;99.90;;;;;;5051939;28;21039;-48
2022/11/01 13:07:34;;;;;;;6.93;5.13;;;14.00;99.90;;;;;;5052036;28;20445;-48